Time;durP1;ratioP1;P1;durP2;ratioP2;P2;SDS_P1;SDS_P2;PMS_P1;PMS_P2;Temp;Humidity;BMP_temperature;BMP_pressure;BME280_temperature;BME280_humidity;BME280_pressure;Samples;Min_cycle;Max_cycle;Signal;HPM_P1;HPM_P2
2023/04/28 00:01:25;;;;;;;11.70;10.73;;;;;;;9.39;54.12;100886.03;5093484;28;20265;-66
2023/04/28 00:03:52;;;;;;;12.23;11.03;;;;;;;9.33;54.22;100889.94;5093428;28;20696;-66
2023/04/28 00:06:18;;;;;;;12.83;11.57;;;;;;;9.34;54.48;100881.84;5093597;28;20541;-66
2023/04/28 00:08:45;;;;;;;12.07;10.80;;;;;;;9.35;54.48;100872.00;5093905;28;20185;-66
2023/04/28 00:11:11;;;;;;;12.10;11.17;;;;;;;9.28;55.02;100878.69;5093354;28;20206;-66
2023/04/28 00:13:38;;;;;;;12.27;11.23;;;;;;;9.22;55.52;100877.28;5093523;28;20675;-66
2023/04/28 00:16:05;;;;;;;12.33;11.17;;;;;;;9.27;55.85;100872.50;5093250;28;20201;-66
2023/04/28 00:18:32;;;;;;;12.80;11.77;;;;;;;9.27;56.13;100863.63;5093569;28;20197;-66
2023/04/28 00:21:00;;;;;;;17.53;11.80;;;;;;;9.30;56.76;100853.59;5093808;28;20215;-66
2023/04/28 00:23:26;;;;;;;12.27;11.10;;;;;;;9.21;57.46;100856.84;5093290;28;20648;-66
2023/04/28 00:25:54;;;;;;;11.03;10.13;;;;;;;9.28;56.75;100850.16;5093193;28;20212;-66
2023/04/28 00:28:21;;;;;;;12.70;11.50;;;;;;;9.26;56.78;100845.84;5093163;28;20656;-66
2023/04/28 00:31:00;;;;;;;15.07;11.90;;;;;;;9.12;57.39;100847.63;5091993;28;20288;-66
2023/04/28 00:33:26;;;;;;;13.20;11.93;;;;;;;9.18;57.37;100850.84;5075010;28;20229;-66
2023/04/28 00:36:00;;;;;;;12.27;11.37;;;;;;;9.18;57.51;100846.34;5074976;28;20300;-66
2023/04/28 00:38:26;;;;;;;13.60;12.13;;;;;;;9.21;57.86;100843.47;5093345;28;20198;-66
2023/04/28 00:40:53;;;;;;;15.27;11.27;;;;;;;9.20;58.30;100832.91;5093686;28;20193;-66
2023/04/28 00:43:19;;;;;;;16.77;12.30;;;;;;;9.14;59.06;100823.44;5093096;28;20209;-66
2023/04/28 00:45:46;;;;;;;12.90;11.60;;;;;;;9.13;58.81;100824.44;5093289;28;20209;-66
2023/04/28 00:48:13;;;;;;;11.97;11.17;;;;;;;9.13;59.56;100829.78;5093043;28;20236;-66
2023/04/28 00:50:39;;;;;;;12.73;11.77;;;;;;;9.10;61.58;100814.78;5093613;28;20719;-66
2023/04/28 00:53:05;;;;;;;12.80;11.60;;;;;;;9.01;62.98;100812.72;5092936;28;20196;-66
2023/04/28 00:55:34;;;;;;;12.53;11.33;;;;;;;9.01;62.15;100815.38;5092926;28;20210;-66
2023/04/28 00:58:01;;;;;;;13.47;12.23;;;;;;;9.00;62.76;100805.63;5074887;28;20221;-66
2023/04/28 01:00:28;;;;;;;14.03;12.57;;;;;;;8.96;61.84;100805.97;5076944;28;20607;-66
2023/04/28 01:02:56;;;;;;;12.50;11.50;;;;;;;8.98;62.35;100806.69;5097407;28;20186;-66
2023/04/28 01:05:27;;;;;;;12.80;11.43;;;;;;;8.97;62.68;100805.84;5078492;28;20210;-66
2023/04/28 01:07:55;;;;;;;13.23;12.00;;;;;;;8.89;63.51;100802.81;5078758;28;20198;-66
2023/04/28 01:10:21;;;;;;;13.10;12.00;;;;;;;8.91;63.61;100811.59;5078498;28;20186;-66
2023/04/28 01:12:48;;;;;;;11.93;11.10;;;;;;;8.82;64.22;100815.69;5078502;28;20197;-66
2023/04/28 01:15:16;;;;;;;12.97;11.80;;;;;;;8.84;64.40;100810.25;5096671;28;20663;-66
2023/04/28 01:17:45;;;;;;;13.03;11.97;;;;;;;8.74;65.82;100801.97;5078588;28;20668;-66
2023/04/28 01:20:13;;;;;;;12.10;11.30;;;;;;;8.71;65.82;100808.38;5078340;28;20194;-66
2023/04/28 01:22:40;;;;;;;14.53;12.90;;;;;;;8.68;65.65;100795.19;5078317;28;20276;-66
2023/04/28 01:25:07;;;;;;;12.83;11.63;;;;;;;8.75;65.63;100805.50;5078449;28;20214;-66
2023/04/28 01:27:34;;;;;;;13.53;12.23;;;;;;;8.70;66.16;100797.78;5078179;28;20206;-66
2023/04/28 01:30:01;;;;;;;12.80;11.77;;;;;;;8.66;66.21;100793.56;5078423;28;20247;-66
2023/04/28 01:32:27;;;;;;;13.10;12.03;;;;;;;8.69;65.61;100796.03;5078139;28;20660;-66
2023/04/28 01:34:55;;;;;;;13.50;12.27;;;;;;;8.64;67.50;100793.69;5095395;28;20279;-66
2023/04/28 01:37:21;;;;;;;11.87;10.93;;;;;;;8.56;68.31;100787.09;5077997;28;20259;-66
2023/04/28 01:39:47;;;;;;;13.77;12.40;;;;;;;8.50;68.26;100785.69;5096424;28;20190;-66
2023/04/28 01:42:14;;;;;;;14.53;12.53;;;;;;;8.48;69.03;100774.25;5096376;28;20662;-66
2023/04/28 01:44:40;;;;;;;12.93;11.93;;;;;;;8.37;69.42;100777.53;5096048;28;20613;-66
2023/04/28 01:47:09;;;;;;;12.20;10.90;;;;;;;8.38;69.76;100781.03;5095895;28;20198;-66
2023/04/28 01:49:35;;;;;;;13.57;11.77;;;;;;;8.37;69.48;100782.88;5096230;28;20562;-66
2023/04/28 01:52:02;;;;;;;12.20;11.27;;;;;;;8.39;69.53;100788.97;5095911;28;20186;-66
2023/04/28 01:54:28;;;;;;;13.33;12.10;;;;;;;8.43;70.56;100789.69;5095704;28;20255;-66
2023/04/28 01:56:55;;;;;;;12.47;11.33;;;;;;;8.43;70.69;100790.53;5095750;28;20297;-66
2023/04/28 01:59:23;;;;;;;13.40;11.97;;;;;;;8.43;71.29;100798.53;5077659;28;20189;-66
2023/04/28 02:01:49;;;;;;;13.60;11.13;;;;;;;8.41;71.04;100788.91;5077268;28;20189;-66
2023/04/28 02:04:16;;;;;;;12.93;11.63;;;;;;;8.39;71.52;100783.63;5094421;28;20648;-66
2023/04/28 02:06:43;;;;;;;12.27;11.30;;;;;;;8.38;72.65;100784.59;5095845;28;20205;-66
2023/04/28 02:09:11;;;;;;;12.27;11.07;;;;;;;8.36;73.41;100777.66;5095904;28;20256;-66
2023/04/28 02:11:38;;;;;;;12.47;11.40;;;;;;;8.25;74.69;100760.47;5095512;28;20255;-66
2023/04/28 02:14:04;;;;;;;16.33;12.43;;;;;;;8.21;74.45;100764.28;5095426;28;20627;-66
2023/04/28 02:16:32;;;;;;;14.60;13.30;;;;;;;8.23;74.91;100769.50;5077328;28;20217;-66
2023/04/28 02:18:58;;;;;;;14.00;12.57;;;;;;;8.21;75.07;100768.75;5077221;28;20197;-66
2023/04/28 02:21:26;;;;;;;13.70;12.50;;;;;;;8.16;75.63;100758.34;5095346;28;20178;-66
2023/04/28 02:23:53;;;;;;;14.60;13.13;;;;;;;8.14;75.93;100762.94;5077401;28;20190;-66
2023/04/28 02:26:19;;;;;;;12.53;11.47;;;;;;;8.12;75.71;100753.31;5095649;28;20212;-67
2023/04/28 02:28:50;;;;;;;13.23;12.13;;;;;;;8.03;77.33;100750.25;5095837;28;20166;-67
2023/04/28 02:31:16;;;;;;;17.33;12.80;;;;;;;8.02;77.31;100753.88;5095405;28;20662;-67
2023/04/28 02:33:44;;;;;;;14.57;13.27;;;;;;;7.96;78.32;100756.91;5076896;28;20239;-67
2023/04/28 02:36:11;;;;;;;13.43;12.13;;;;;;;7.99;78.04;100754.06;5076905;28;20217;-67
2023/04/28 02:38:40;;;;;;;13.53;12.40;;;;;;;7.88;78.84;100754.72;5076904;28;20197;-67
2023/04/28 02:41:08;;;;;;;13.13;12.20;;;;;;;7.88;79.31;100756.53;5094956;28;20184;-67
2023/04/28 02:43:36;;;;;;;17.93;14.30;;;;;;;7.89;79.33;100759.09;5076718;28;20570;-67
2023/04/28 02:46:03;;;;;;;14.50;13.03;;;;;;;7.88;79.93;100746.72;5076550;28;20300;-67
2023/04/28 02:48:30;;;;;;;16.07;14.47;;;;;;;7.81;80.37;100749.84;5094661;28;20279;-67
2023/04/28 02:50:56;;;;;;;14.30;13.00;;;;;;;7.79;80.47;100746.41;5076662;28;20542;-67
2023/04/28 02:53:23;;;;;;;17.20;14.20;;;;;;;7.79;81.14;100747.25;5076553;28;20194;-67
2023/04/28 02:55:49;;;;;;;15.47;13.97;;;;;;;7.75;81.58;100742.22;5076517;28;20214;-67
2023/04/28 02:58:16;;;;;;;14.80;13.33;;;;;;;7.76;81.30;100752.78;5076484;28;20626;-67
2023/04/28 03:00:44;;;;;;;13.67;12.47;;;;;;;7.78;81.83;100748.22;5076741;28;20196;-67
2023/04/28 03:03:11;;;;;;;15.03;13.73;;;;;;;7.80;81.53;100740.13;5076385;28;20725;-67
2023/04/28 03:05:38;;;;;;;15.23;13.50;;;;;;;7.83;82.19;100734.63;5094730;28;20193;-68
2023/04/28 03:08:05;;;;;;;23.70;14.03;;;;;;;7.81;82.39;100740.03;5094716;28;20223;-68
2023/04/28 03:10:31;;;;;;;20.23;14.70;;;;;;;7.76;83.10;100731.47;5076270;28;20190;-68
2023/04/28 03:12:59;;;;;;;16.87;14.57;;;;;;;7.73;83.58;100725.44;5076232;28;20287;-68
2023/04/28 03:15:26;;;;;;;15.37;13.90;;;;;;;7.72;84.33;100723.75;5094432;28;20300;-68
2023/04/28 03:17:52;;;;;;;19.07;15.30;;;;;;;7.70;85.04;100728.28;5076119;28;20557;-68
2023/04/28 03:20:19;;;;;;;21.57;15.27;;;;;;;7.68;85.35;100725.72;5094242;28;20200;-67
2023/04/28 03:22:45;;;;;;;16.20;14.50;;;;;;;7.69;85.19;100719.44;5093651;28;20193;-67
2023/04/28 03:25:12;;;;;;;23.77;16.03;;;;;;;7.66;85.84;100715.16;5094276;28;20196;-67
2023/04/28 03:27:46;;;;;;;18.93;15.60;;;;;;;7.61;86.21;100716.38;5075913;28;20206;-67
2023/04/28 03:30:13;;;;;;;18.30;14.10;;;;;;;7.57;86.53;100712.19;5075947;28;20254;-67
2023/04/28 03:32:39;;;;;;;18.77;15.03;;;;;;;7.59;86.54;100705.81;5094581;28;20166;-68
2023/04/28 03:35:07;;;;;;;20.23;16.20;;;;;;;7.59;86.69;100705.81;5075592;28;20228;-68
2023/04/28 03:37:33;;;;;;;21.33;17.33;;;;;;;7.60;86.98;100707.53;5076592;28;20565;-68
2023/04/28 03:40:00;;;;;;;19.27;17.23;;;;;;;7.60;87.03;100704.00;5075748;28;20196;-68
2023/04/28 03:42:29;;;;;;;23.80;16.10;;;;;;;7.58;86.86;100697.91;5093747;28;20185;-68
2023/04/28 03:45:07;;;;;;;26.03;16.30;;;;;;;7.62;87.25;100686.13;5075646;28;20212;-68
2023/04/28 03:47:34;;;;;;;20.33;17.27;;;;;;;7.56;87.92;100678.47;5075821;28;20278;-68
2023/04/28 03:50:00;;;;;;;22.53;17.50;;;;;;;7.52;88.59;100675.16;5075576;28;20221;-68
2023/04/28 03:52:27;;;;;;;20.60;17.07;;;;;;;7.56;88.58;100675.81;5075535;28;20198;-68
2023/04/28 03:54:54;;;;;;;20.93;16.93;;;;;;;7.59;89.08;100664.97;5075654;28;20207;-68
2023/04/28 03:57:20;;;;;;;18.43;15.70;;;;;;;7.59;88.70;100664.97;5075472;28;20205;-68
2023/04/28 03:59:47;;;;;;;22.97;16.60;;;;;;;7.65;88.84;100657.47;5093658;28;20189;-68
2023/04/28 04:02:15;;;;;;;19.77;17.00;;;;;;;7.61;89.56;100652.41;5075524;28;20204;-68
2023/04/28 04:04:42;;;;;;;26.70;16.97;;;;;;;7.67;88.83;100660.03;5075390;28;20318;-68
2023/04/28 04:07:09;;;;;;;20.23;15.80;;;;;;;7.65;89.34;100653.94;5093976;28;20213;-69
2023/04/28 04:09:35;;;;;;;23.00;18.10;;;;;;;7.68;89.47;100651.09;5075353;28;20189;-68
2023/04/28 04:12:03;;;;;;;31.27;18.67;;;;;;;7.67;89.73;100647.56;5075544;28;20201;-68
2023/04/28 04:14:30;;;;;;;23.27;16.63;;;;;;;7.74;89.45;100650.72;5075302;28;20237;-68
2023/04/28 04:16:56;;;;;;;26.63;17.77;;;;;;;7.78;89.99;100640.72;5075108;28;20713;-68
2023/04/28 04:19:25;;;;;;;21.53;17.73;;;;;;;7.73;90.08;100643.66;5075454;28;20219;-68
2023/04/28 04:21:52;;;;;;;22.47;17.80;;;;;;;7.79;90.65;100645.97;5075349;28;20197;-68
2023/04/28 04:24:19;;;;;;;21.73;17.37;;;;;;;7.77;90.66;100633.69;5075333;28;20205;-68
2023/04/28 04:26:45;;;;;;;26.27;18.17;;;;;;;7.80;91.38;100623.66;5074981;28;20316;-68
2023/04/28 04:29:24;;;;;;;23.73;18.03;;;;;;;7.80;91.09;100630.81;5075405;28;20190;-69
2023/04/28 04:31:51;;;;;;;32.70;18.97;;;;;;;7.86;90.79;100643.78;5075293;28;20192;-68
2023/04/28 04:34:17;;;;;;;30.27;17.47;;;;;;;7.95;90.72;100658.31;5093318;28;20296;-68
2023/04/28 04:36:44;;;;;;;20.87;17.73;;;;;;;7.98;91.15;100647.50;5096015;28;20217;-69
2023/04/28 04:39:11;;;;;;;18.50;16.50;;;;;;;7.99;90.68;100655.38;5079115;28;20295;-69
2023/04/28 04:41:38;;;;;;;21.13;18.30;;;;;;;8.01;91.43;100645.47;5079266;28;20288;-68
2023/04/28 04:44:25;;;;;;;25.17;18.60;;;;;;;8.05;91.23;100644.34;5083090;28;20196;-68
2023/04/28 04:46:52;;;;;;;24.33;17.67;;;;;;;8.10;91.08;100642.25;5078906;28;20638;-68
2023/04/28 04:49:19;;;;;;;25.60;19.10;;;;;;;8.14;91.57;100639.38;5079569;28;20654;-68
2023/04/28 04:51:46;;;;;;;23.67;17.40;;;;;;;8.14;91.10;100644.69;5078959;28;20239;-68
2023/04/28 04:54:12;;;;;;;19.90;17.67;;;;;;;8.17;91.47;100637.38;5078802;28;20205;-68
2023/04/28 04:56:41;;;;;;;22.00;17.20;;;;;;;8.19;91.10;100642.59;5078683;28;20240;-68
2023/04/28 04:59:09;;;;;;;24.37;18.37;;;;;;;8.15;92.22;100643.78;5078844;28;20194;-68
2023/04/28 05:01:55;;;;;;;25.60;19.23;;;;;;;8.18;92.18;100638.22;5096457;28;20205;-68
2023/04/28 05:04:22;;;;;;;26.80;18.60;;;;;;;8.22;92.10;100642.44;5096869;28;20621;-68
2023/04/28 05:06:49;;;;;;;23.60;18.00;;;;;;;8.23;92.45;100633.47;5079121;28;20667;-68
2023/04/28 05:09:16;;;;;;;28.07;19.10;;;;;;;8.25;92.57;100637.75;5078760;28;20200;-68
2023/04/28 05:11:44;;;;;;;25.53;19.20;;;;;;;8.26;93.01;100635.91;5078596;28;20197;-68
2023/04/28 05:14:10;;;;;;;26.80;19.90;;;;;;;8.37;92.62;100628.09;5078365;28;20284;-68
2023/04/28 05:16:40;;;;;;;27.10;20.60;;;;;;;8.37;92.96;100627.25;5078340;28;20625;-68
2023/04/28 05:19:15;;;;;;;26.67;19.70;;;;;;;8.44;93.33;100632.13;5095298;28;20186;-68
2023/04/28 05:21:41;;;;;;;22.83;18.93;;;;;;;8.45;93.19;100627.63;5078598;28;20598;-68
2023/04/28 05:24:08;;;;;;;24.27;19.10;;;;;;;8.46;93.57;100629.34;5078323;28;20194;-68
2023/04/28 05:26:35;;;;;;;29.33;19.77;;;;;;;8.42;93.73;100623.34;5077896;28;20565;-68
2023/04/28 05:29:05;;;;;;;24.63;19.07;;;;;;;8.48;93.52;100624.78;5077275;28;20193;-68
2023/04/28 05:31:32;;;;;;;30.50;19.07;;;;;;;8.49;94.07;100613.97;5095348;28;20213;-68
2023/04/28 05:33:58;;;;;;;22.13;18.40;;;;;;;8.50;94.22;100607.72;5076779;28;20198;-68
2023/04/28 05:36:25;;;;;;;30.63;20.60;;;;;;;8.51;94.78;100608.56;5076702;28;20217;-69
2023/04/28 05:38:51;;;;;;;31.27;20.43;;;;;;;8.54;95.30;100608.34;5076902;28;20218;-69
2023/04/28 05:41:18;;;;;;;28.87;19.93;;;;;;;8.51;95.45;100608.56;5076959;28;20190;-68
2023/04/28 05:43:46;;;;;;;26.40;19.47;;;;;;;8.55;95.58;100603.84;5076645;28;20186;-68
2023/04/28 05:46:13;;;;;;;29.13;20.67;;;;;;;8.61;95.36;100598.13;5076987;28;20216;-69
2023/04/28 05:48:55;;;;;;;24.73;20.13;;;;;;;8.71;95.45;100593.88;5093577;28;20185;-68
2023/04/28 05:51:22;;;;;;;27.43;20.00;;;;;;;8.71;95.44;100593.88;5076592;28;20193;-68
2023/04/28 05:53:48;;;;;;;26.47;21.13;;;;;;;8.75;95.66;100598.06;5094659;28;20247;-68
2023/04/28 05:56:15;;;;;;;28.77;20.07;;;;;;;8.79;95.55;100594.25;5076649;28;20321;-69
2023/04/28 05:58:46;;;;;;;27.67;20.03;;;;;;;8.89;95.14;100592.66;5076582;28;20190;-69
2023/04/28 06:01:13;;;;;;;23.13;19.50;;;;;;;8.93;95.18;100595.97;5076466;28;20566;-69
2023/04/28 06:03:40;;;;;;;26.77;18.87;;;;;;;8.94;95.30;100595.88;5095123;28;20266;-69
2023/04/28 06:06:09;;;;;;;24.33;19.50;;;;;;;8.98;95.32;100593.88;5076368;28;20255;-69
2023/04/28 06:08:37;;;;;;;25.60;20.20;;;;;;;9.00;95.60;100586.59;5076528;28;20204;-69
2023/04/28 06:11:04;;;;;;;26.33;19.53;;;;;;;9.06;95.54;100590.69;5076259;28;20209;-69
2023/04/28 06:13:30;;;;;;;24.00;18.87;;;;;;;9.08;95.41;100586.94;5076295;28;20712;-69
2023/04/28 06:15:57;;;;;;;23.70;18.67;;;;;;;9.13;95.58;100589.31;5076302;28;20221;-69
2023/04/28 06:18:23;;;;;;;24.83;19.53;;;;;;;9.19;95.19;100588.88;5076235;28;20606;-69
2023/04/28 06:20:50;;;;;;;28.87;19.03;;;;;;;9.19;95.74;100591.53;5094883;28;20178;-69
2023/04/28 06:23:16;;;;;;;21.23;17.50;;;;;;;9.18;96.05;100589.84;5094269;28;20276;-68
2023/04/28 06:25:45;;;;;;;25.70;18.87;;;;;;;9.25;96.30;100587.63;5076003;28;20213;-69
2023/04/28 06:28:12;;;;;;;23.73;19.40;;;;;;;9.28;95.78;100585.56;5100401;28;20565;-69
2023/04/28 06:30:38;;;;;;;27.73;19.33;;;;;;;9.34;95.92;100579.81;5077290;28;20686;-69
2023/04/28 06:33:05;;;;;;;26.67;19.23;;;;;;;9.37;96.08;100576.06;5095116;28;20268;-69
2023/04/28 06:35:34;;;;;;;24.83;19.80;;;;;;;9.41;95.94;100580.25;5076736;28;20701;-69
2023/04/28 06:38:02;;;;;;;29.10;20.07;;;;;;;9.50;96.13;100573.41;5095087;28;20182;-69
2023/04/28 06:40:28;;;;;;;29.27;20.60;;;;;;;9.49;96.11;100577.91;5093768;28;20297;-69
2023/04/28 06:42:56;;;;;;;31.00;21.70;;;;;;;9.56;96.21;100581.00;5077131;28;20193;-69
2023/04/28 06:45:32;;;;;;;22.07;19.57;;;;;;;9.66;95.86;100582.06;5077241;28;20687;-69
2023/04/28 06:47:58;;;;;;;26.20;19.27;;;;;;;9.72;95.99;100562.03;5076740;28;20193;-69
2023/04/28 06:50:25;;;;;;;27.63;20.47;;;;;;;9.74;96.21;100560.97;5095329;28;20193;-69
2023/04/28 06:52:51;;;;;;;23.50;20.00;;;;;;;9.75;96.35;100557.34;5094775;28;20675;-69
2023/04/28 06:55:18;;;;;;;26.33;19.60;;;;;;;9.83;96.84;100558.63;5094541;28;20214;-69
2023/04/28 06:57:44;;;;;;;22.80;20.43;;;;;;;9.92;96.59;100555.28;5075715;28;20200;-69
2023/04/28 07:00:12;;;;;;;23.73;19.27;;;;;;;9.98;96.79;100546.81;5093411;28;20190;-69
2023/04/28 07:02:38;;;;;;;24.77;20.83;;;;;;;10.11;96.67;100534.25;5094556;28;20270;-69
2023/04/28 07:05:06;;;;;;;22.47;19.40;;;;;;;10.28;96.73;100538.41;5094449;28;20185;-69
2023/04/28 07:07:32;;;;;;;25.50;20.60;;;;;;;10.41;96.57;100541.00;5094393;28;20185;-69
2023/04/28 07:09:59;;;;;;;29.03;20.73;;;;;;;10.53;96.49;100536.56;5094436;28;20216;-68
2023/04/28 07:12:26;;;;;;;23.07;18.63;;;;;;;10.64;95.82;100544.66;5094355;28;20193;-68
2023/04/28 07:14:52;;;;;;;25.90;19.73;;;;;;;10.69;95.49;100523.75;5094118;28;20205;-69
2023/04/28 07:17:19;;;;;;;24.77;18.87;;;;;;;10.63;94.92;100514.34;5094277;28;20193;-69
2023/04/28 07:19:45;;;;;;;22.20;19.07;;;;;;;10.66;94.14;100528.50;5094230;28;20613;-68
2023/04/28 07:22:12;;;;;;;22.63;18.83;;;;;;;10.80;93.89;100534.50;5094480;28;20182;-68
2023/04/28 07:24:38;;;;;;;19.57;17.57;;;;;;;10.96;93.42;100544.03;5094300;28;20186;-68
2023/04/28 07:27:05;;;;;;;23.20;18.03;;;;;;;10.94;92.67;100533.47;5094423;28;20649;-69
2023/04/28 07:29:33;;;;;;;19.13;16.13;;;;;;;11.09;92.55;100527.91;5094537;28;20197;-69
2023/04/28 07:32:00;;;;;;;19.27;17.30;;;;;;;11.21;92.59;100534.97;5093985;28;20667;-68
2023/04/28 07:34:27;;;;;;;20.57;17.17;;;;;;;11.35;92.60;100532.06;5093948;28;20189;-68
2023/04/28 07:36:53;;;;;;;18.67;16.33;;;;;;;11.42;92.42;100537.78;5093776;28;20292;-67
2023/04/28 07:39:20;;;;;;;17.83;16.03;;;;;;;11.44;91.01;100533.16;5094196;28;20194;-68
2023/04/28 07:41:47;;;;;;;16.57;15.03;;;;;;;11.57;91.54;100533.06;5093876;28;20182;-68
2023/04/28 07:44:13;;;;;;;15.97;14.40;;;;;;;11.70;91.00;100533.78;5093820;28;20664;-68
2023/04/28 07:46:40;;;;;;;16.93;15.40;;;;;;;11.83;90.52;100531.00;5093754;28;20194;-69
2023/04/28 07:49:07;;;;;;;15.67;14.17;;;;;;;11.93;90.52;100537.34;5093720;28;20220;-69
2023/04/28 07:51:33;;;;;;;15.37;13.93;;;;;;;11.81;88.95;100531.09;5093692;28;20194;-68
2023/04/28 07:54:00;;;;;;;21.20;15.67;;;;;;;11.98;88.92;100537.81;5093866;28;20232;-68
2023/04/28 07:56:26;;;;;;;20.13;14.57;;;;;;;12.09;89.50;100543.19;5093433;28;20294;-68
2023/04/28 07:58:52;;;;;;;18.10;13.20;;;;;;;12.18;88.71;100538.88;5093953;28;20210;-69
2023/04/28 08:01:19;;;;;;;13.70;12.70;;;;;;;12.23;88.65;100536.66;5093785;28;20190;-68
2023/04/28 08:03:45;;;;;;;18.50;14.13;;;;;;;12.33;88.28;100528.72;5094096;28;20185;-68
2023/04/28 08:06:12;;;;;;;14.87;13.10;;;;;;;12.45;87.75;100513.41;5093647;28;20201;-69
2023/04/28 08:08:39;;;;;;;15.17;13.40;;;;;;;12.54;87.70;100512.66;5093663;28;20264;-69
2023/04/28 08:11:06;;;;;;;14.63;13.07;;;;;;;12.51;86.56;100507.53;5093473;28;20193;-68
2023/04/28 08:13:33;;;;;;;19.90;14.07;;;;;;;12.47;85.37;100520.38;5093949;28;20214;-68
2023/04/28 08:15:59;;;;;;;13.93;12.63;;;;;;;12.63;85.89;100511.03;5093395;28;20224;-69
2023/04/28 08:18:28;;;;;;;13.43;12.30;;;;;;;12.71;85.68;100509.44;5093908;28;20243;-69
2023/04/28 08:20:54;;;;;;;16.63;14.23;;;;;;;12.73;85.72;100506.59;5093347;28;20189;-69
2023/04/28 08:23:21;;;;;;;14.30;12.90;;;;;;;12.84;85.00;100509.22;5094162;28;20652;-69
2023/04/28 08:25:49;;;;;;;12.93;12.13;;;;;;;12.94;84.45;100510.13;5093520;28;20288;-69
2023/04/28 08:28:15;;;;;;;20.23;11.87;;;;;;;13.09;84.15;100507.97;5093245;28;20232;-69
2023/04/28 08:30:41;;;;;;;12.10;11.00;;;;;;;13.06;84.58;100499.31;5093445;28;20206;-69
2023/04/28 08:33:08;;;;;;;12.60;11.37;;;;;;;13.20;84.63;100505.22;5093208;28;20268;-69
2023/04/28 08:35:34;;;;;;;12.77;11.53;;;;;;;13.31;83.67;100503.44;5093330;28;20217;-69
2023/04/28 08:38:01;;;;;;;12.27;11.60;;;;;;;13.46;82.92;100496.75;5093720;28;20272;-69
2023/04/28 08:40:30;;;;;;;12.77;11.67;;;;;;;13.60;82.98;100491.00;5093199;28;20193;-69
2023/04/28 08:42:57;;;;;;;15.13;12.23;;;;;;;13.66;81.84;100496.81;5093681;28;20186;-69
2023/04/28 08:45:24;;;;;;;13.67;12.13;;;;;;;13.70;81.28;100487.50;5093225;28;20202;-69
2023/04/28 08:47:55;;;;;;;13.67;10.57;;;;;;;13.90;81.02;100494.63;5093144;28;20231;-69
2023/04/28 08:50:23;;;;;;;10.07;9.30;;;;;;;13.94;80.42;100484.47;5093651;28;20690;-69
2023/04/28 08:52:51;;;;;;;12.70;11.40;;;;;;;14.09;80.69;100491.13;5093590;28;20273;-69
2023/04/28 08:55:18;;;;;;;12.30;11.20;;;;;;;14.04;78.66;100493.41;5092868;28;20210;-69
2023/04/28 08:57:48;;;;;;;18.77;11.03;;;;;;;14.10;78.03;100494.69;5093015;28;20269;-69
2023/04/28 09:00:14;;;;;;;11.27;10.17;;;;;;;14.19;78.30;100486.59;5093541;28;20178;-69
2023/04/28 09:02:41;;;;;;;13.63;10.40;;;;;;;14.37;79.20;100478.72;5093251;28;20213;-69
2023/04/28 09:05:10;;;;;;;10.37;9.77;;;;;;;14.57;77.01;100476.03;5093115;28;20206;-69
2023/04/28 09:07:37;;;;;;;10.70;9.87;;;;;;;14.67;77.85;100482.28;5092804;28;20189;-69
2023/04/28 09:10:20;;;;;;;10.97;9.67;;;;;;;14.84;77.19;100484.25;5092902;28;20186;-69
2023/04/28 09:12:51;;;;;;;12.53;10.90;;;;;;;15.01;77.56;100481.78;5092947;28;20190;-69
2023/04/28 09:15:27;;;;;;;10.73;9.97;;;;;;;14.97;75.76;100481.25;5093011;28;20229;-69
2023/04/28 09:17:56;;;;;;;10.10;9.40;;;;;;;14.95;75.46;100480.53;5075744;28;20216;-69
2023/04/28 09:20:24;;;;;;;9.60;9.17;;;;;;;14.82;75.31;100475.47;5093391;28;20197;-69
2023/04/28 09:22:52;;;;;;;9.83;9.23;;;;;;;14.64;75.68;100479.88;5097023;28;20235;-69
2023/04/28 09:25:23;;;;;;;12.40;9.77;;;;;;;14.62;75.58;100479.16;5096605;28;20208;-69
2023/04/28 09:27:49;;;;;;;9.37;8.73;;;;;;;14.65;76.86;100479.75;5096418;28;20200;-68
2023/04/28 09:30:16;;;;;;;9.60;9.00;;;;;;;14.58;76.45;100481.31;5096934;28;20268;-68
2023/04/28 09:32:42;;;;;;;8.17;7.87;;;;;;;14.61;76.54;100482.84;5096352;28;20190;-68
2023/04/28 09:35:09;;;;;;;10.40;9.50;;;;;;;14.61;77.14;100483.69;5096680;28;20205;-69
2023/04/28 09:37:36;;;;;;;12.03;10.63;;;;;;;14.52;77.36;100480.97;5096459;28;20214;-69
2023/04/28 09:40:08;;;;;;;10.43;9.67;;;;;;;14.38;77.02;100480.41;5096394;28;20591;-69
2023/04/28 09:42:37;;;;;;;9.07;8.77;;;;;;;14.36;76.68;100479.69;5096911;28;20188;-69
2023/04/28 09:45:05;;;;;;;10.37;9.43;;;;;;;14.39;76.84;100482.13;5096768;28;20276;-69
2023/04/28 09:47:34;;;;;;;9.80;9.17;;;;;;;14.51;76.96;100488.22;5095969;28;20217;-69
2023/04/28 09:50:08;;;;;;;9.90;9.27;;;;;;;14.60;78.11;100486.53;5096556;28;20189;-69
2023/04/28 09:52:35;;;;;;;10.70;9.83;;;;;;;14.56;78.21;100485.97;5096197;28;20178;-69
2023/04/28 09:55:04;;;;;;;10.80;10.00;;;;;;;14.55;77.46;100478.88;5095849;28;20247;-69
2023/04/28 09:57:32;;;;;;;10.07;9.07;;;;;;;14.62;77.49;100462.97;5095747;28;20296;-69
2023/04/28 10:00:01;;;;;;;10.10;9.37;;;;;;;14.71;78.06;100462.13;5096656;28;20198;-69
2023/04/28 10:02:31;;;;;;;10.10;9.53;;;;;;;14.85;78.58;100466.22;5095921;28;20249;-69
2023/04/28 10:05:09;;;;;;;12.47;8.90;;;;;;;14.85;77.57;100460.84;5095577;28;20288;-69
2023/04/28 10:07:37;;;;;;;10.43;9.70;;;;;;;14.97;76.58;100461.53;5096119;28;20223;-68
2023/04/28 10:10:06;;;;;;;10.80;10.07;;;;;;;14.97;77.25;100465.06;5095469;28;20235;-68
2023/04/28 10:12:33;;;;;;;10.00;9.47;;;;;;;14.87;76.62;100456.16;5095607;28;20216;-68
2023/04/28 10:15:00;;;;;;;9.20;8.27;;;;;;;14.76;77.23;100459.84;5095405;28;20273;-69
2023/04/28 10:17:28;;;;;;;9.63;8.87;;;;;;;14.75;77.74;100457.28;5095490;28;20225;-69
2023/04/28 10:19:55;;;;;;;27.93;8.80;;;;;;;14.57;78.56;100455.31;5095406;28;20193;-69
2023/04/28 10:22:54;;;;;;;11.40;9.17;;;;;;;14.65;78.24;100455.47;5095380;28;20239;-68
2023/04/28 10:25:31;;;;;;;9.60;9.03;;;;;;;14.65;78.60;100458.16;5095886;28;20288;-69
2023/04/28 10:27:59;;;;;;;8.27;7.97;;;;;;;14.77;78.60;100453.47;5095283;28;20208;-69
2023/04/28 10:30:29;;;;;;;8.77;8.20;;;;;;;14.77;79.18;100458.88;5095470;28;20178;-69
2023/04/28 10:33:05;;;;;;;9.00;8.40;;;;;;;14.86;78.35;100457.13;5093965;28;20647;-69
2023/04/28 10:35:39;;;;;;;10.50;9.67;;;;;;;14.80;78.91;100458.56;5095021;28;20213;-69
2023/04/28 10:38:16;;;;;;;12.73;8.43;;;;;;;14.72;78.71;100449.50;5095371;28;20261;-68
2023/04/28 10:40:53;;;;;;;13.53;10.57;;;;;;;14.60;78.97;100449.63;5095330;28;20205;-69
2023/04/28 10:43:31;;;;;;;10.77;10.17;;;;;;;14.51;79.51;100455.00;5094991;28;20182;-68
2023/04/28 10:46:00;;;;;;;10.07;9.47;;;;;;;14.56;79.88;100453.63;5095501;28;20197;-68
2023/04/28 10:48:33;;;;;;;11.33;10.27;;;;;;;14.61;80.53;100451.34;5095067;28;20197;-68
2023/04/28 10:51:06;;;;;;;11.33;10.20;;;;;;;14.58;80.38;100451.66;5095080;28;20197;-68
2023/04/28 10:53:44;;;;;;;10.70;9.93;;;;;;;14.46;80.41;100455.44;5095315;28;20248;-68
2023/04/28 10:56:15;;;;;;;10.67;9.57;;;;;;;14.40;80.96;100442.53;5094479;28;20296;-68
2023/04/28 10:58:44;;;;;;;9.87;9.20;;;;;;;14.42;80.97;100448.66;5094604;28;20243;-68
2023/04/28 11:01:20;;;;;;;9.73;9.17;;;;;;;14.44;80.61;100449.34;5094932;28;20257;-68
2023/04/28 11:03:48;;;;;;;11.67;10.70;;;;;;;14.46;81.10;100447.34;5094531;28;20174;-68
2023/04/28 11:06:25;;;;;;;13.63;10.97;;;;;;;14.50;81.40;100453.31;5094634;28;20267;-68
2023/04/28 11:08:54;;;;;;;15.33;11.40;;;;;;;14.53;81.64;100453.03;5095089;28;20227;-68
2023/04/28 11:11:32;;;;;;;11.43;10.43;;;;;;;14.49;82.46;100446.25;5094339;28;20264;-68
2023/04/28 11:14:19;;;;;;;14.43;11.10;;;;;;;14.44;83.19;100447.50;5094254;28;20261;-68
2023/04/28 11:17:00;;;;;;;12.97;12.07;;;;;;;14.46;83.32;100447.34;5094311;28;20210;-68
2023/04/28 11:19:29;;;;;;;14.50;12.57;;;;;;;14.34;83.84;100445.78;5094726;28;20261;-68
2023/04/28 11:21:57;;;;;;;12.73;11.03;;;;;;;14.23;83.79;100447.63;5094457;28;20203;-68